Terminal Aerodrome Forecast
Issued by NWS

Home | Current Version | Previous Version | Text Only | Print | Product List | Glossary On
Versions: 1 2 3 4 5 6 7 8 9 10 11 12 13 14 15 16 17 18 19 20 21 22 23 24
000
FTPA31 PHFO 260500
TAFMKK
TAF
PHMK 260520Z 2606/2706 03008G14KT P6SM SCT025
     FM262000 03015G23KT P6SM FEW025 SCT040
     FM270500 03011G17KT P6SM FEW030=

USA.gov is the U.S. government's official web portal to all federal, state and local government web resources and services.